Time;durP1;ratioP1;P1;durP2;ratioP2;P2;SDS_P1;SDS_P2;PMS_P1;PMS_P2;Temp;Humidity;BMP_temperature;BMP_pressure;BME280_temperature;BME280_humidity;BME280_pressure;Samples;Min_cycle;Max_cycle;Signal;HPM_P1;HPM_P2
2022/06/06 00:01:44;;;;;;;4.03;2.67;;;;;;;16.79;43.06;100755.56;1702031;82;25728;-65
2022/06/06 00:04:12;;;;;;;5.78;2.90;;;;;;;16.76;43.14;100746.29;1690886;82;98968;-66
2022/06/06 00:06:40;;;;;;;5.08;2.87;;;;;;;16.75;43.25;100744.55;1666447;84;25969;-65
2022/06/06 00:09:09;;;;;;;6.55;2.80;;;;;;;16.73;43.32;100742.44;1673411;84;27516;-66
2022/06/06 00:11:36;;;;;;;3.98;2.83;;;;;;;16.71;43.41;100738.97;1667985;84;98619;-64
2022/06/06 00:14:05;;;;;;;3.40;2.67;;;;;;;16.70;43.47;100727.76;1666689;84;26440;-64
2022/06/06 00:16:32;;;;;;;6.20;3.30;;;;;;;16.67;43.54;100734.24;1662417;84;98866;-64
2022/06/06 00:18:58;;;;;;;3.77;2.62;;;;;;;16.65;43.65;100729.42;1668987;84;25760;-65
2022/06/06 00:21:26;;;;;;;3.80;2.17;;;;;;;16.63;43.72;100727.27;1666431;84;26101;-64
2022/06/06 00:23:56;;;;;;;9.05;3.08;;;;;;;16.61;43.78;100725.63;1663312;85;98706;-64
2022/06/06 00:26:22;;;;;;;6.17;3.37;;;;;;;16.57;43.86;100723.62;1664981;84;25825;-64
2022/06/06 00:28:49;;;;;;;4.17;2.45;;;;;;;16.56;43.94;100725.45;1663110;84;98735;-67
2022/06/06 00:36:47;;;;;;;5.42;3.00;;;;;;;16.53;44.20;100724.80;1623380;86;26192;-65
2022/06/06 00:39:17;;;;;;;6.03;2.98;;;;;;;16.50;44.30;100720.45;1623390;86;25873;-65
2022/06/06 00:41:47;;;;;;;4.40;3.00;;;;;;;16.49;44.36;100724.62;1629433;85;98823;-65
2022/06/06 00:44:30;;;;;;;4.50;3.15;;;;;;;16.46;44.43;100720.27;1651265;85;25843;-65
2022/06/06 00:47:20;;;;;;;5.95;2.80;;;;;;;16.43;44.50;100717.77;1650368;85;98861;-64
2022/06/06 00:49:54;;;;;;;5.12;3.00;;;;;;;16.41;44.60;100725.13;1663662;84;26054;-64
2022/06/06 00:52:28;;;;;;;4.67;3.12;;;;;;;16.37;44.65;100724.08;1667217;84;98976;-64
2022/06/06 00:55:00;;;;;;;5.78;2.65;;;;;;;16.38;44.73;100721.27;1671360;84;27780;-64
2022/06/06 00:57:31;;;;;;;4.62;2.92;;;;;;;16.36;44.80;100721.86;1667055;84;26686;-64
2022/06/06 01:00:10;;;;;;;3.70;2.90;;;;;;;16.36;44.87;100722.34;1665760;84;98521;-64
2022/06/06 01:02:37;;;;;;;4.50;3.02;;;;;;;16.35;44.93;100719.25;1699753;82;25786;-65
2022/06/06 01:05:06;;;;;;;6.00;3.45;;;;;;;16.34;45.02;100722.44;1697065;82;99156;-65
2022/06/06 01:07:33;;;;;;;4.00;2.75;;;;;;;16.34;45.10;100718.38;1696989;82;25778;-65
2022/06/06 01:10:05;;;;;;;8.70;3.22;;;;;;;16.32;45.15;100717.62;1697049;82;98844;-64
2022/06/06 01:12:32;;;;;;;6.30;2.85;;;;;;;16.31;45.20;100714.53;1703199;82;27437;-65
2022/06/06 01:15:09;;;;;;;2.90;2.60;;;;;;;16.29;45.26;100712.89;1707946;82;26228;-65
2022/06/06 01:17:58;;;;;;;3.12;2.72;;;;;;;16.27;45.32;100702.17;1711995;82;98832;-65
2022/06/06 01:20:36;;;;;;;3.55;3.10;;;;;;;16.24;45.39;100695.13;1712865;82;26106;-65
2022/06/06 01:23:46;;;;;;;3.27;2.72;;;;;;;16.22;45.49;100697.07;1698450;82;98645;-65
2022/06/06 01:26:30;;;;;;;4.55;3.35;;;;;;;16.21;45.53;100691.28;1682316;83;29612;-65
2022/06/06 01:29:08;;;;;;;4.62;3.17;;;;;;;16.17;45.59;100688.88;1681632;83;98887;-65
2022/06/06 01:32:02;;;;;;;5.08;3.05;;;;;;;16.15;45.70;100680.00;1656807;84;26023;-66
2022/06/06 01:34:34;;;;;;;5.45;3.15;;;;;;;16.13;45.72;100675.17;1657113;85;98925;-65
2022/06/06 01:37:02;;;;;;;11.12;3.70;;;;;;;16.10;45.80;100672.67;1703349;82;25853;-65
2022/06/06 01:39:32;;;;;;;3.20;2.75;;;;;;;16.10;45.85;100665.91;1656697;85;28286;-65
2022/06/06 01:42:14;;;;;;;7.40;3.37;;;;;;;16.08;45.93;100663.80;1660859;84;98740;-65
2022/06/06 01:44:52;;;;;;;7.97;3.50;;;;;;;16.06;45.97;100664.37;1698541;82;26272;-64
2022/06/06 01:47:29;;;;;;;5.72;3.15;;;;;;;16.04;46.04;100664.96;1694860;82;99406;-64
2022/06/06 01:50:00;;;;;;;3.35;2.90;;;;;;;16.00;46.10;100670.19;1700780;82;26344;-64
2022/06/06 01:52:26;;;;;;;3.90;2.83;;;;;;;15.98;46.17;100662.17;1703641;82;98849;-64
2022/06/06 01:54:56;;;;;;;4.70;3.00;;;;;;;15.96;46.28;100657.84;1681531;82;25907;-64
2022/06/06 01:57:24;;;;;;;6.60;3.35;;;;;;;15.94;46.39;100648.96;1700075;82;25766;-64
2022/06/06 01:59:57;;;;;;;5.97;3.20;;;;;;;15.88;46.46;100651.09;1701031;82;98756;-64
2022/06/06 02:02:24;;;;;;;5.55;3.10;;;;;;;15.87;46.54;100645.79;1704170;82;25789;-64
2022/06/06 02:04:50;;;;;;;6.37;3.42;;;;;;;15.82;46.61;100643.87;1704552;82;98657;-64
2022/06/06 02:07:18;;;;;;;5.40;3.27;;;;;;;15.77;46.73;100644.17;1706760;82;26794;-64
2022/06/06 02:09:46;;;;;;;4.97;2.98;;;;;;;15.74;46.81;100640.31;1705673;82;25922;-64
2022/06/06 02:12:12;;;;;;;4.60;3.10;;;;;;;15.69;46.90;100635.69;1661252;83;98623;-64
2022/06/06 02:14:38;;;;;;;7.50;3.77;;;;;;;15.64;47.06;100632.41;1694268;82;26022;-64
2022/06/06 02:17:06;;;;;;;7.53;3.60;;;;;;;15.64;47.15;100643.22;1640289;85;98829;-64
2022/06/06 02:19:34;;;;;;;4.22;3.08;;;;;;;15.60;47.25;100637.67;1681791;83;26392;-64
2022/06/06 02:22:05;;;;;;;5.78;3.55;;;;;;;15.60;47.34;100636.80;1639961;85;98800;-64
2022/06/06 02:24:32;;;;;;;7.75;4.00;;;;;;;15.55;47.42;100638.41;1681231;83;25746;-65
2022/06/06 02:26:58;;;;;;;4.37;3.33;;;;;;;15.53;47.48;100637.64;1680336;83;25744;-65
2022/06/06 02:29:27;;;;;;;3.87;3.20;;;;;;;15.51;47.61;100638.22;1702450;82;98763;-65
2022/06/06 02:31:55;;;;;;;5.78;3.40;;;;;;;15.49;47.67;100639.67;1704030;82;26239;-65
2022/06/06 02:34:21;;;;;;;6.50;3.83;;;;;;;15.49;47.73;100645.55;1705824;82;98982;-65
2022/06/06 02:36:50;;;;;;;5.40;3.70;;;;;;;15.47;47.89;100636.68;1702880;82;44864;-65
2022/06/06 02:39:17;;;;;;;8.10;3.62;;;;;;;15.43;47.92;100646.81;1701945;82;26340;-65
2022/06/06 02:41:45;;;;;;;5.35;3.22;;;;;;;15.42;48.01;100657.23;1700178;82;99262;-65
2022/06/06 02:44:10;;;;;;;5.65;3.52;;;;;;;15.42;48.11;100652.31;1700895;82;25696;-65
2022/06/06 02:46:38;;;;;;;6.35;3.35;;;;;;;15.42;48.21;100653.66;1700024;82;98789;-65
2022/06/06 02:49:04;;;;;;;5.40;3.27;;;;;;;15.39;48.28;100657.42;1699245;82;27833;-65
2022/06/06 02:51:30;;;;;;;4.45;3.27;;;;;;;15.40;48.35;100667.75;1702124;82;25806;-65
2022/06/06 02:53:55;;;;;;;5.47;3.60;;;;;;;15.39;48.38;100660.61;1696761;82;98756;-65
2022/06/06 02:56:23;;;;;;;8.85;3.65;;;;;;;15.37;48.43;100657.14;1701990;82;25990;-65
2022/06/06 02:58:50;;;;;;;7.67;3.35;;;;;;;15.36;48.55;100656.27;1698927;82;98696;-65
2022/06/06 03:01:16;;;;;;;7.40;4.00;;;;;;;15.38;48.56;100653.47;1700023;82;26326;-65
2022/06/06 03:03:43;;;;;;;11.55;3.80;;;;;;;15.36;48.70;100653.57;1703309;82;25893;-65
2022/06/06 03:06:29;;;;;;;8.05;3.95;;;;;;;15.36;48.71;100652.22;1698812;82;98876;-65
2022/06/06 03:09:04;;;;;;;4.45;3.72;;;;;;;15.36;48.75;100661.67;1678437;83;26004;-65
2022/06/06 03:11:58;;;;;;;6.78;3.87;;;;;;;15.36;48.87;100658.10;1678754;83;98705;-64
2022/06/06 03:14:33;;;;;;;5.87;3.77;;;;;;;15.37;48.90;100658.48;1703861;82;26512;-64
2022/06/06 03:20:54;;;;;;;7.95;4.40;;;;;;;15.39;49.02;100667.36;1615957;87;27445;-65
2022/06/06 03:23:53;;;;;;;6.05;3.92;;;;;;;15.39;49.14;100666.02;1610691;87;98880;-65
2022/06/06 03:26:39;;;;;;;9.80;4.10;;;;;;;15.41;49.21;100666.30;1693614;82;25782;-65
2022/06/06 03:29:36;;;;;;;4.50;3.62;;;;;;;15.44;49.30;100673.34;1705057;82;98799;-65
2022/06/06 03:32:13;;;;;;;7.37;4.55;;;;;;;15.47;49.32;100677.20;1702261;82;25957;-64
2022/06/06 03:34:56;;;;;;;5.80;4.33;;;;;;;15.50;49.37;100676.52;1708213;82;98907;-64
2022/06/06 03:37:55;;;;;;;6.40;4.50;;;;;;;15.53;49.47;100680.87;1704526;82;26407;-65
2022/06/06 03:40:26;;;;;;;6.00;4.12;;;;;;;15.55;49.53;100678.94;1688410;83;98964;-64
2022/06/06 03:43:10;;;;;;;6.95;4.75;;;;;;;15.58;49.62;100678.77;1704586;82;26382;-64
2022/06/06 03:46:15;;;;;;;5.87;4.50;;;;;;;15.62;49.71;100674.01;1688727;83;25736;-64
2022/06/06 03:49:06;;;;;;;8.65;4.33;;;;;;;15.64;49.71;100676.13;1711051;82;27407;-64
2022/06/06 03:52:06;;;;;;;5.40;4.28;;;;;;;15.60;49.83;100673.27;1706394;82;27084;-64
2022/06/06 03:54:43;;;;;;;10.65;5.12;;;;;;;15.58;49.88;100672.02;1671922;83;98712;-64
2022/06/06 03:57:16;;;;;;;10.03;5.08;;;;;;;15.56;49.92;100676.14;1706558;82;26779;-64
2022/06/06 03:59:48;;;;;;;19.52;5.30;;;;;;;15.56;50.02;100675.27;1709062;82;98978;-65
2022/06/06 04:02:22;;;;;;;7.03;5.05;;;;;;;15.56;50.13;100680.19;1692928;83;28121;-65
2022/06/06 04:04:51;;;;;;;8.18;5.10;;;;;;;15.58;50.24;100680.13;1674355;83;98905;-64
2022/06/06 04:07:18;;;;;;;7.53;4.87;;;;;;;15.58;50.33;100684.17;1707411;82;26394;-64
2022/06/06 04:09:45;;;;;;;10.60;5.35;;;;;;;15.58;50.42;100680.99;1703326;82;25821;-65
2022/06/06 04:12:53;;;;;;;9.78;5.28;;;;;;;15.60;50.44;100677.33;1702432;82;99032;-65
2022/06/06 04:15:53;;;;;;;10.53;5.28;;;;;;;15.58;50.54;100675.59;1706402;82;29544;-64
2022/06/06 04:18:42;;;;;;;13.08;6.35;;;;;;;15.58;50.69;100668.84;1702918;82;98930;-65
2022/06/06 04:21:49;;;;;;;9.43;5.58;;;;;;;15.58;50.76;100678.29;1684750;83;26197;-64
2022/06/06 04:27:43;;;;;;;7.42;5.83;;;;;;;15.55;50.97;100680.28;1714323;81;25781;-64
2022/06/06 04:30:26;;;;;;;11.48;5.90;;;;;;;15.56;51.05;100673.91;1734455;80;98883;-64
2022/06/06 04:33:23;;;;;;;15.72;6.65;;;;;;;15.57;51.16;100671.15;1709411;82;25830;-64
2022/06/06 04:36:24;;;;;;;8.53;5.72;;;;;;;15.60;51.19;100679.55;1724897;81;99306;-64
2022/06/06 04:38:58;;;;;;;6.93;5.47;;;;;;;15.61;51.29;100677.20;1739427;81;26069;-64
2022/06/06 04:41:39;;;;;;;7.37;5.50;;;;;;;15.62;51.37;100669.95;1734197;81;99330;-65
2022/06/06 04:44:22;;;;;;;9.30;5.60;;;;;;;15.62;51.49;100671.31;1713574;81;27788;-64
2022/06/06 04:47:12;;;;;;;8.60;5.83;;;;;;;15.67;51.52;100671.40;1749625;80;99116;-64
2022/06/06 04:49:39;;;;;;;10.60;6.05;;;;;;;15.70;51.56;100661.75;1748411;80;26539;-64
2022/06/06 04:52:06;;;;;;;10.40;6.12;;;;;;;15.73;51.65;100657.50;1749642;80;26604;-64
2022/06/06 04:54:35;;;;;;;11.50;6.55;;;;;;;15.76;51.75;100657.30;1748393;80;98906;-64
2022/06/06 04:57:04;;;;;;;8.68;6.70;;;;;;;15.80;51.79;100654.78;1749949;80;28762;-66
2022/06/06 04:59:34;;;;;;;8.93;6.45;;;;;;;15.83;51.81;100644.25;1750196;80;98766;-64
2022/06/06 05:02:04;;;;;;;11.83;6.45;;;;;;;15.86;51.95;100642.22;1753828;80;25728;-64
2022/06/06 05:04:30;;;;;;;8.45;6.40;;;;;;;15.90;51.99;100653.22;1758517;79;99148;-64
2022/06/06 05:07:27;;;;;;;11.25;7.12;;;;;;;15.97;52.08;100648.76;1706394;82;26473;-64
2022/06/06 05:10:16;;;;;;;11.73;6.08;;;;;;;16.02;52.09;100643.92;1703569;82;27404;-65
2022/06/06 05:13:12;;;;;;;11.15;7.25;;;;;;;16.07;52.25;100649.89;1695031;83;98716;-65
2022/06/06 05:15:58;;;;;;;8.78;6.08;;;;;;;16.15;52.28;100649.77;1695428;83;26458;-65
2022/06/06 05:18:47;;;;;;;13.05;6.70;;;;;;;16.28;52.37;100648.95;1725511;81;98761;-65
2022/06/06 05:21:51;;;;;;;8.95;6.75;;;;;;;16.36;52.35;100649.30;1697664;83;25811;-64
2022/06/06 05:24:22;;;;;;;14.90;6.97;;;;;;;16.47;52.43;100642.69;1720946;81;98734;-65
2022/06/06 05:27:21;;;;;;;8.98;6.75;;;;;;;16.60;52.48;100640.87;1720459;81;27193;-65
2022/06/06 05:30:02;;;;;;;8.93;7.40;;;;;;;16.73;52.49;100642.29;1730265;80;98637;-65
2022/06/06 05:32:47;;;;;;;9.83;6.83;;;;;;;16.89;52.55;100626.72;1749796;80;25829;-65
2022/06/06 05:35:27;;;;;;;13.10;7.62;;;;;;;17.04;52.53;100623.42;1748488;80;98679;-65
2022/06/06 05:38:17;;;;;;;13.13;7.42;;;;;;;17.19;52.58;100624.56;1749556;80;27367;-66
2022/06/06 05:41:09;;;;;;;13.70;8.00;;;;;;;17.37;52.61;100620.16;1747074;80;98981;-66
2022/06/06 05:43:52;;;;;;;10.80;7.22;;;;;;;17.56;52.62;100622.41;1748280;80;25691;-66
2022/06/06 05:46:32;;;;;;;9.23;7.12;;;;;;;17.74;52.60;100619.25;1745945;80;26634;-67
2022/06/06 05:49:22;;;;;;;13.10;8.10;;;;;;;17.90;52.58;100623.05;1744440;80;98544;-66
2022/06/06 05:52:28;;;;;;;13.83;8.55;;;;;;;18.06;52.56;100621.42;1747448;80;28430;-66
2022/06/06 05:55:41;;;;;;;12.85;7.78;;;;;;;18.20;52.53;100617.67;1745220;80;98651;-66
2022/06/06 05:58:34;;;;;;;12.60;8.40;;;;;;;18.39;52.56;100617.97;1748192;80;25760;-66
2022/06/06 06:01:32;;;;;;;15.58;8.48;;;;;;;18.55;52.47;100628.03;1625948;86;98778;-67
2022/06/06 06:04:22;;;;;;;13.32;8.80;;;;;;;18.67;52.40;100624.89;1733739;80;25695;-66
2022/06/06 06:07:03;;;;;;;17.95;9.53;;;;;;;18.76;52.37;100623.69;1734530;80;98800;-66
2022/06/06 06:09:55;;;;;;;;;;;;;;;18.88;52.38;100622.36;1753274;80;26512;-66
2022/06/06 06:13:02;;;;;;;12.05;7.58;;;;;;;18.97;52.34;100618.92;1747463;80;84592;-66
2022/06/06 06:15:38;;;;;;;12.95;8.13;;;;;;;19.04;52.28;100619.67;1746445;80;25754;-66
2022/06/06 06:18:43;;;;;;;12.23;7.95;;;;;;;19.19;52.26;100624.39;1747018;80;98825;-67
2022/06/06 06:21:27;;;;;;;11.83;8.60;;;;;;;19.33;52.20;100630.95;1742758;80;27865;-67
2022/06/06 06:24:02;;;;;;;12.85;8.40;;;;;;;19.46;52.09;100627.62;1746488;80;98878;-66
2022/06/06 06:26:31;;;;;;;13.22;8.88;;;;;;;19.55;52.11;100612.45;1746142;80;25813;-66
2022/06/06 06:29:04;;;;;;;11.97;8.63;;;;;;;19.71;52.04;100612.06;1747549;80;99056;-66
2022/06/06 06:31:54;;;;;;;17.00;8.70;;;;;;;19.80;52.04;100614.03;1753487;80;26511;-66
2022/06/06 06:34:34;;;;;;;13.65;8.53;;;;;;;19.97;51.98;100619.44;1750662;79;26900;-66
2022/06/06 06:37:31;;;;;;;13.35;8.75;;;;;;;20.09;51.93;100618.41;1751439;80;97801;-67
2022/06/06 06:40:12;;;;;;;16.97;9.15;;;;;;;20.25;51.86;100620.22;1754721;80;25726;-66
2022/06/06 06:43:03;;;;;;;13.13;8.40;;;;;;;20.41;51.72;100617.97;1750741;80;98905;-66
2022/06/06 06:45:35;;;;;;;13.78;9.15;;;;;;;20.52;51.60;100610.74;1750938;80;25766;-66
2022/06/06 06:48:11;;;;;;;15.05;8.58;;;;;;;20.57;51.50;100612.08;1754255;80;98924;-68
2022/06/06 06:50:53;;;;;;;14.33;8.70;;;;;;;20.71;51.46;100604.09;1752903;80;25915;-68
2022/06/06 06:53:47;;;;;;;18.12;8.23;;;;;;;20.87;51.39;100604.45;1712054;81;99081;-66
2022/06/06 06:56:34;;;;;;;13.93;8.18;;;;;;;21.05;51.30;100603.34;1642629;83;25948;-66
2022/06/06 06:59:49;;;;;;;22.00;8.95;;;;;;;21.23;51.10;100609.07;1688527;83;98972;-66
2022/06/06 07:09:26;;;;;;;16.77;9.53;;;;;;;21.71;50.60;100593.77;1715988;82;25785;-67
2022/06/06 07:12:13;;;;;;;16.27;7.92;;;;;;;21.90;50.38;100585.27;1679843;82;98948;-66
2022/06/06 07:14:47;;;;;;;15.93;8.43;;;;;;;21.95;50.10;100578.39;1722352;81;25808;-67
2022/06/06 07:17:17;;;;;;;12.70;8.10;;;;;;;21.87;49.71;100565.09;1707977;81;99104;-66
2022/06/06 07:19:51;;;;;;;14.07;7.62;;;;;;;22.00;49.82;100571.14;1732246;81;26326;-66
2022/06/06 07:22:22;;;;;;;9.60;6.67;;;;;;;22.22;49.06;100559.98;1730729;81;25408;-67
2022/06/06 07:24:55;;;;;;;14.55;7.87;;;;;;;22.22;49.06;100559.98;1735350;81;99010;-66
2022/06/06 07:27:21;;;;;;;15.80;8.10;;;;;;;22.41;49.35;100578.74;1731585;81;25861;-66
2022/06/06 07:29:47;;;;;;;12.90;7.40;;;;;;;22.52;49.22;100588.16;1734476;80;98748;-66
2022/06/06 07:32:28;;;;;;;12.58;7.70;;;;;;;22.58;49.11;100582.11;1737125;81;25806;-67
2022/06/06 07:35:12;;;;;;;12.88;7.75;;;;;;;22.67;48.97;100578.51;1733782;81;99447;-67
2022/06/06 07:38:03;;;;;;;13.38;8.03;;;;;;;22.66;48.89;100575.42;1647838;84;25974;-66
2022/06/06 07:40:57;;;;;;;13.00;7.78;;;;;;;22.70;48.72;100576.85;1693286;81;26045;-66
2022/06/06 07:43:38;;;;;;;22.02;8.43;;;;;;;22.76;48.58;100580.37;1726490;81;27338;-67
2022/06/06 07:46:09;;;;;;;17.10;7.80;;;;;;;22.84;48.37;100586.50;1679348;81;25829;-70
2022/06/06 07:48:53;;;;;;;11.78;7.92;;;;;;;22.79;48.19;100590.14;1743388;79;99316;-70
2022/06/06 07:51:54;;;;;;;15.83;7.60;;;;;;;22.78;48.15;100590.65;1762710;79;27195;-70
2022/06/06 07:54:37;;;;;;;18.12;8.88;;;;;;;22.87;48.10;100587.58;1758567;79;99459;-71
2022/06/06 07:57:31;;;;;;;14.15;7.55;;;;;;;22.94;47.99;100580.00;1760389;79;27435;-73
2022/06/06 08:00:20;;;;;;;12.45;7.87;;;;;;;22.88;47.76;100575.63;1737934;80;99191;-71
2022/06/06 08:03:13;;;;;;;17.25;8.53;;;;;;;22.92;47.84;100575.19;1767327;79;25822;-71
2022/06/06 08:06:00;;;;;;;12.68;8.20;;;;;;;23.05;47.85;100575.38;1755056;79;99138;-71
2022/06/06 08:09:04;;;;;;;8.68;7.62;;;;;;;23.08;47.65;100577.81;1760097;79;25618;-70
2022/06/06 08:11:48;;;;;;;16.90;7.75;;;;;;;23.21;47.68;100570.14;1704077;82;99309;-70
2022/06/06 08:14:20;;;;;;;10.58;8.53;;;;;;;23.38;47.63;100570.72;1735289;80;25937;-71
2022/06/06 08:16:57;;;;;;;22.58;7.95;;;;;;;23.50;47.51;100565.88;1732109;80;25909;-71
2022/06/06 08:19:35;;;;;;;11.45;7.87;;;;;;;23.56;47.29;100568.05;1729772;81;98861;-70
2022/06/06 08:22:02;;;;;;;14.07;8.45;;;;;;;23.60;47.37;100564.86;1766824;79;25925;-70
2022/06/06 08:24:42;;;;;;;11.25;7.83;;;;;;;23.72;47.21;100564.65;1760532;79;98766;-71
2022/06/06 08:27:13;;;;;;;11.78;7.87;;;;;;;23.79;47.14;100557.55;1764468;79;25872;-72
2022/06/06 08:29:43;;;;;;;24.32;9.50;;;;;;;23.88;47.09;100567.06;1735684;80;99136;-71
2022/06/06 08:32:11;;;;;;;11.53;7.87;;;;;;;23.91;46.94;100566.77;1731720;81;25679;-73
2022/06/06 08:34:39;;;;;;;11.22;7.90;;;;;;;24.02;46.99;100561.58;1729914;81;25699;-72
2022/06/06 08:37:24;;;;;;;12.03;8.45;;;;;;;24.12;46.78;100568.34;1730369;81;98776;-72
2022/06/06 08:40:20;;;;;;;10.35;8.75;;;;;;;24.12;46.73;100572.45;1728555;81;27442;-70
2022/06/06 08:43:01;;;;;;;11.97;8.83;;;;;;;24.14;46.54;100575.39;1674601;81;98947;-73
2022/06/06 08:45:58;;;;;;;11.30;8.05;;;;;;;24.02;46.33;100575.77;1731579;81;26489;-71
2022/06/06 08:49:00;;;;;;;14.05;8.35;;;;;;;24.02;46.48;100569.78;1728619;81;98861;-71
2022/06/06 08:51:43;;;;;;;15.85;8.40;;;;;;;24.17;46.56;100570.11;1711424;81;27501;-72
2022/06/06 08:54:48;;;;;;;14.47;8.55;;;;;;;24.33;46.41;100574.92;1730302;81;98865;-71
2022/06/06 08:57:53;;;;;;;13.28;8.18;;;;;;;24.36;46.40;100577.34;1726520;81;26150;-70
2022/06/06 09:00:38;;;;;;;15.10;9.00;;;;;;;24.54;46.34;100583.69;1728777;81;98894;-71
2022/06/06 09:03:38;;;;;;;11.83;8.18;;;;;;;24.71;46.28;100580.06;1729985;81;26069;-72
2022/06/06 09:06:24;;;;;;;14.25;9.35;;;;;;;24.88;46.20;100579.67;1727958;80;98835;-70
2022/06/06 09:09:40;;;;;;;18.17;9.20;;;;;;;25.08;46.11;100572.13;1737650;80;25928;-72
2022/06/06 09:12:29;;;;;;;10.80;8.78;;;;;;;25.23;45.91;100570.00;1721996;81;98875;-70
2022/06/06 09:15:11;;;;;;;15.70;9.13;;;;;;;25.24;45.65;100571.72;1725944;81;26357;-70
2022/06/06 09:18:01;;;;;;;10.98;8.03;;;;;;;25.09;45.45;100573.85;1702649;81;99559;-70
2022/06/06 09:20:41;;;;;;;10.60;9.13;;;;;;;24.96;45.31;100575.62;1705303;81;27608;-70
2022/06/06 09:23:29;;;;;;;19.20;9.85;;;;;;;24.98;45.34;100575.48;1727446;81;99109;-71
2022/06/06 09:26:21;;;;;;;11.97;8.20;;;;;;;24.87;45.14;100576.58;1700416;81;25752;-71
2022/06/06 09:29:15;;;;;;;13.50;8.83;;;;;;;24.90;45.31;100575.75;1726716;81;25969;-71
2022/06/06 09:32:13;;;;;;;14.38;8.88;;;;;;;25.00;45.34;100572.08;1753330;80;98565;-71
2022/06/06 09:34:48;;;;;;;13.62;9.58;;;;;;;25.00;45.10;100574.82;1761892;80;27440;-71
2022/06/06 09:37:26;;;;;;;10.45;9.20;;;;;;;24.80;45.05;100574.13;1760664;79;98906;-70
2022/06/06 09:40:19;;;;;;;10.70;8.65;;;;;;;24.71;45.21;100568.23;1744568;80;25781;-70
2022/06/06 09:43:09;;;;;;;13.80;8.88;;;;;;;24.82;45.44;100569.34;1702319;82;98938;-70
2022/06/06 09:45:58;;;;;;;10.58;8.75;;;;;;;25.12;45.45;100566.16;1701416;82;26184;-70
2022/06/06 09:48:50;;;;;;;11.45;9.10;;;;;;;25.19;45.21;100569.11;1711707;82;98964;-69
2022/06/06 09:51:33;;;;;;;18.75;8.78;;;;;;;24.99;45.07;100568.98;1711436;81;26496;-69
2022/06/06 10:01:10;;;;;;;15.30;9.55;;;;;;;24.86;45.07;100569.37;1692992;83;99019;-70
2022/06/06 10:03:56;;;;;;;12.88;9.38;;;;;;;24.82;45.11;100572.09;1713654;82;29498;-70
2022/06/06 10:06:52;;;;;;;16.87;9.88;;;;;;;24.81;45.11;100573.11;1734107;79;99300;-70
2022/06/06 10:09:42;;;;;;;13.43;9.68;;;;;;;24.62;45.11;100572.79;1738163;79;26218;-71
2022/06/06 10:12:43;;;;;;;13.03;9.47;;;;;;;24.50;45.28;100576.80;1730674;81;98906;-70
2022/06/06 10:15:40;;;;;;;14.90;10.20;;;;;;;24.42;45.33;100577.58;1723634;81;25778;-72
2022/06/06 10:18:35;;;;;;;22.27;10.80;;;;;;;23.99;45.10;100576.94;1711730;80;99096;-70
2022/06/06 10:21:51;;;;;;;14.73;9.75;;;;;;;23.59;45.29;100589.63;1698424;83;27033;-71
2022/06/06 10:25:03;;;;;;;15.88;10.65;;;;;;;23.20;45.74;100581.59;1716577;82;98875;-71
2022/06/06 10:27:35;;;;;;;16.27;10.48;;;;;;;23.06;46.06;100593.50;1733090;81;26408;-70
2022/06/06 10:30:22;;;;;;;18.95;9.28;;;;;;;22.85;46.21;100590.45;1730850;81;99301;-70
2022/06/06 10:33:12;;;;;;;21.07;10.50;;;;;;;22.75;46.41;100593.67;1727520;81;28170;-69
2022/06/06 10:36:11;;;;;;;17.37;11.48;;;;;;;22.55;46.60;100600.16;1721677;81;99328;-68
2022/06/06 10:39:18;;;;;;;15.58;11.15;;;;;;;22.29;46.94;100606.70;1701597;83;25893;-70
2022/06/06 10:42:04;;;;;;;18.30;10.88;;;;;;;22.03;47.22;100605.01;1687516;82;99251;-70
2022/06/06 10:44:52;;;;;;;17.65;11.78;;;;;;;21.86;47.65;100621.53;1715097;82;25736;-69
2022/06/06 10:47:42;;;;;;;20.25;12.18;;;;;;;21.67;48.12;100631.02;1712970;82;27461;-71
2022/06/06 10:50:29;;;;;;;18.98;13.70;;;;;;;21.41;48.79;100630.61;1709807;82;25933;-71
2022/06/06 10:53:15;;;;;;;19.50;14.15;;;;;;;21.11;49.54;100623.74;1717467;82;25770;-71
2022/06/06 10:56:05;;;;;;;19.85;13.43;;;;;;;20.85;50.36;100634.19;1715184;82;99067;-71
2022/06/06 10:59:05;;;;;;;20.60;14.07;;;;;;;20.60;51.38;100631.38;1715616;82;25782;-70
2022/06/06 11:01:54;;;;;;;18.50;14.28;;;;;;;20.48;52.20;100636.01;1714246;82;99066;-71
2022/06/06 11:04:53;;;;;;;17.60;15.35;;;;;;;20.33;52.83;100639.99;1713931;82;27299;-70
2022/06/06 11:07:38;;;;;;;21.85;15.65;;;;;;;20.23;53.22;100641.76;1706069;82;99187;-70
2022/06/06 11:10:24;;;;;;;20.85;15.10;;;;;;;20.20;53.61;100645.59;1720533;81;25746;-70
2022/06/06 11:13:18;;;;;;;24.10;15.40;;;;;;;20.00;54.23;100648.61;1683170;82;99376;-70
2022/06/06 11:16:07;;;;;;;23.83;15.53;;;;;;;19.86;54.66;100650.73;1674642;84;29491;-68
2022/06/06 11:18:54;;;;;;;27.22;16.87;;;;;;;19.74;54.93;100653.47;1662285;84;99204;-69
2022/06/06 11:21:56;;;;;;;21.57;15.63;;;;;;;19.65;55.29;100652.86;1670605;84;26387;-69
2022/06/06 11:24:40;;;;;;;26.75;16.80;;;;;;;19.63;56.12;100655.33;1672012;84;99166;-69
2022/06/06 11:27:47;;;;;;;20.80;15.65;;;;;;;19.45;56.41;100659.00;1674557;83;26581;-69
2022/06/06 11:30:51;;;;;;;20.92;15.65;;;;;;;19.38;56.78;100665.42;1725955;81;99589;-69
2022/06/06 11:33:41;;;;;;;24.60;16.42;;;;;;;19.35;57.11;100653.44;1697728;83;27159;-70
2022/06/06 11:36:22;;;;;;;18.82;15.55;;;;;;;19.32;57.79;100663.69;1695283;81;99173;-70
2022/06/06 11:39:27;;;;;;;26.12;17.17;;;;;;;19.23;59.32;100674.79;1692916;82;25855;-71
2022/06/06 11:42:19;;;;;;;21.07;16.62;;;;;;;19.07;59.55;100672.41;1688715;82;99426;-69
2022/06/06 11:45:11;;;;;;;20.65;17.55;;;;;;;18.99;60.01;100668.07;1703348;83;27494;-71
2022/06/06 11:48:33;;;;;;;22.37;17.00;;;;;;;18.95;60.24;100672.50;1703474;83;25775;-69
2022/06/06 11:51:35;;;;;;;23.32;17.73;;;;;;;18.84;60.64;100681.98;1703376;84;25715;-70
2022/06/06 11:54:45;;;;;;;23.22;18.10;;;;;;;18.62;61.75;100680.91;1683757;84;25763;-69
2022/06/06 11:57:40;;;;;;;24.65;18.85;;;;;;;18.45;61.93;100682.64;1702012;84;26052;-72
2022/06/06 12:00:33;;;;;;;23.77;18.60;;;;;;;18.34;62.47;100694.80;1702917;84;27481;-67
2022/06/06 12:03:26;;;;;;;34.35;23.42;;;;;;;18.29;63.34;100691.56;1702675;82;98860;-66
2022/06/06 12:06:21;;;;;;;29.63;21.35;;;;;;;18.31;62.98;100686.88;1668882;84;25789;-66
2022/06/06 12:09:06;;;;;;;25.68;19.62;;;;;;;18.31;63.12;100689.11;1702262;81;99014;-67
2022/06/06 12:11:54;;;;;;;28.15;19.50;;;;;;;18.27;63.28;100687.60;1703175;84;25913;-68
2022/06/06 12:14:56;;;;;;;25.50;19.45;;;;;;;18.19;63.58;100685.98;1701448;83;99011;-67
2022/06/06 12:18:10;;;;;;;25.97;18.82;;;;;;;18.20;63.79;100689.07;1702886;84;26049;-67
2022/06/06 12:21:04;;;;;;;29.65;19.48;;;;;;;18.18;63.94;100686.09;1722338;81;99106;-68
2022/06/06 12:24:06;;;;;;;27.37;20.50;;;;;;;18.10;64.32;100682.59;1726701;81;26797;-66
2022/06/06 12:27:15;;;;;;;26.62;19.37;;;;;;;18.11;64.45;100684.33;1731610;81;98993;-67
2022/06/06 12:30:12;;;;;;;26.80;20.10;;;;;;;18.12;64.54;100683.34;1730679;81;27478;-66
2022/06/06 12:33:03;;;;;;;24.47;19.45;;;;;;;18.15;64.67;100692.62;1735576;81;99147;-67
2022/06/06 12:35:40;;;;;;;27.82;18.55;;;;;;;18.19;64.61;100683.27;1731856;81;26207;-66
2022/06/06 12:38:24;;;;;;;24.00;18.15;;;;;;;18.23;64.68;100687.95;1727156;81;99090;-66
2022/06/06 12:41:26;;;;;;;23.35;18.98;;;;;;;18.20;64.67;100688.20;1698735;82;25888;-66
2022/06/06 12:44:09;;;;;;;24.82;19.30;;;;;;;18.16;64.75;100684.37;1729177;81;99067;-66
2022/06/06 12:47:14;;;;;;;26.52;18.75;;;;;;;18.16;64.81;100688.92;1726442;80;26744;-67
2022/06/06 12:50:19;;;;;;;25.37;18.73;;;;;;;18.12;64.85;100688.77;1710382;82;98938;-68
2022/06/06 12:53:25;;;;;;;23.90;17.75;;;;;;;18.09;64.91;100682.22;1716409;82;26557;-66
2022/06/06 12:56:18;;;;;;;24.18;19.65;;;;;;;18.04;65.05;100680.34;1731657;81;98972;-65
2022/06/06 12:58:53;;;;;;;30.17;19.35;;;;;;;17.93;65.21;100682.48;1732974;81;27371;-66
2022/06/06 13:01:42;;;;;;;23.90;18.50;;;;;;;17.85;65.29;100683.53;1727201;81;99364;-66